Time;durP1;ratioP1;P1;durP2;ratioP2;P2;SDS_P1;SDS_P2;PMS_P1;PMS_P2;Temp;Humidity;BMP_temperature;BMP_pressure;BME280_temperature;BME280_humidity;BME280_pressure;Samples;Min_cycle;Max_cycle;Signal;HPM_P1;HPM_P2
2022/08/09 00:18:43;;;;;;;;;;;;;;;16.39;100.00;99943.53;1660042;85;20098;-69
2022/08/09 00:21:10;;;;;;;;;;;;;;;16.39;100.00;99943.53;1658721;85;21153;-70
2022/08/09 00:23:37;;;;;;;;;;;;;;;16.28;100.00;99943.33;1661144;85;20090;-70
2022/08/09 00:26:05;;;;;;;;;;;;;;;16.28;100.00;99942.78;1682078;85;20190;-71
2022/08/09 00:28:32;;;;;;;;;;;;;;;16.31;100.00;99947.37;1684750;85;20123;-70
2022/08/09 00:30:59;;;;;;;;;;;;;;;16.31;100.00;99942.76;1663989;85;20185;-70
2022/08/09 00:33:26;;;;;;;;;;;;;;;16.30;100.00;99945.22;1716915;82;21150;-70
2022/08/09 00:35:53;;;;;;;;;;;;;;;16.28;100.00;99940.63;1683927;84;20128;-71
2022/08/09 00:38:21;;;;;;;;;;;;;;;16.29;100.00;99943.58;1683346;84;20119;-70
2022/08/09 00:40:48;;;;;;;;;;;;;;;16.29;100.00;99948.48;1681425;84;20104;-70
2022/08/09 00:43:15;;;;;;;;;;;;;;;16.29;100.00;99946.29;1683655;85;20104;-70
2022/08/09 00:45:41;;;;;;;;;;;;;;;16.27;100.00;99940.37;1680529;84;21224;-70
2022/08/09 00:48:08;;;;;;;;;;;;;;;16.24;100.00;99940.39;1677213;84;20167;-70
2022/08/09 00:50:35;;;;;;;;;;;;;;;16.24;100.00;99944.97;1662274;84;20178;-70
2022/08/09 00:53:01;;;;;;;;;;;;;;;16.22;100.00;99953.95;1665683;84;20563;-70
2022/08/09 00:55:27;;;;;;;;;;;;;;;16.20;100.00;99954.77;1667833;84;20237;-70
2022/08/09 00:57:54;;;;;;;;;;;;;;;16.23;100.00;99957.71;1682234;84;21264;-71
2022/08/09 01:00:20;;;;;;;;;;;;;;;16.21;100.00;99956.37;1672012;84;20142;-71
2022/08/09 01:02:53;;;;;;;;;;;;;;;16.19;100.00;99950.42;1677048;84;20126;-70
2022/08/09 01:05:29;;;;;;;;;;;;;;;16.19;100.00;99950.42;1651511;86;20137;-71
2022/08/09 01:08:17;;;;;;;;;;;;;;;16.17;100.00;99957.50;1691056;83;20176;-70
2022/08/09 01:11:04;;;;;;;;;;;;;;;16.18;100.00;99952.89;1692803;84;21168;-70
2022/08/09 01:13:37;;;;;;;;;;;;;;;16.16;100.00;99945.03;1672042;84;20744;-71
2022/08/09 01:16:04;;;;;;;;;;;;;;;16.16;100.00;99944.23;1680359;84;20160;-71
2022/08/09 01:18:31;;;;;;;;;;;;;;;16.14;100.00;99947.76;1690961;84;20152;-70
2022/08/09 01:21:16;;;;;;;;;;;;;;;16.09;100.00;99941.83;1667854;84;20450;-70
2022/08/09 01:23:58;;;;;;;;;;;;;;;16.04;100.00;99939.16;1694445;84;21168;-70
2022/08/09 01:26:45;;;;;;;;;;;;;;;15.98;100.00;99945.16;1693982;84;20087;-70
2022/08/09 01:29:12;;;;;;;;;;;;;;;15.93;100.00;99946.53;1692212;84;20457;-70
2022/08/09 01:31:38;;;;;;;;;;;;;;;15.84;100.00;99945.50;1691716;84;20127;-70
2022/08/09 01:34:05;;;;;;;;;;;;;;;15.80;100.00;99939.02;1693492;83;20469;-70
2022/08/09 01:36:32;;;;;;;;;;;;;;;15.76;100.00;99940.68;1698387;84;21328;-70
2022/08/09 01:38:58;;;;;;;;;;;;;;;15.72;100.00;99944.47;1703939;84;20097;-70
2022/08/09 01:41:28;;;;;;;;;;;;;;;15.68;100.00;99943.92;1692568;84;20203;-70
2022/08/09 01:43:57;;;;;;;;;;;;;;;15.59;100.00;99941.00;1695592;84;20441;-71
2022/08/09 01:46:38;;;;;;;;;;;;;;;15.60;100.00;99937.99;1700734;83;20107;-71
2022/08/09 01:49:12;;;;;;;;;;;;;;;15.60;100.00;99935.84;1693735;84;21162;-71
2022/08/09 01:51:47;;;;;;;;;;;;;;;15.60;100.00;99934.48;1666066;85;20159;-70
2022/08/09 01:54:15;;;;;;;;;;;;;;;15.58;100.00;99928.53;1681360;85;20196;-71
2022/08/09 01:56:43;;;;;;;;;;;;;;;15.56;100.00;99931.54;1692097;83;20168;-71
2022/08/09 01:59:10;;;;;;;;;;;;;;;15.54;100.00;99937.77;1667384;84;20099;-71
2022/08/09 02:01:38;;;;;;;;;;;;;;;15.51;100.00;99933.47;1753769;81;21237;-71
2022/08/09 02:04:04;;;;;;;;;;;;;;;15.46;100.00;99936.16;1754289;81;20178;-70
2022/08/09 02:09:16;;;;;;;;;;;;;;;15.38;100.00;99932.14;1725871;83;20143;-70
2022/08/09 02:11:42;;;;;;;;;;;;;;;15.34;100.00;99936.50;1695103;84;20132;-69
2022/08/09 02:14:09;;;;;;;;;;;;;;;15.31;100.00;99933.81;1713936;83;21153;-71
2022/08/09 02:16:36;;;;;;;;;;;;;;;15.28;100.00;99935.69;1701139;83;20431;-70
2022/08/09 02:19:03;;;;;;;;;;;;;;;15.25;100.00;99942.20;1713459;83;20170;-71
2022/08/09 02:21:33;;;;;;;;;;;;;;;15.20;100.00;99943.83;1718994;83;20102;-70
2022/08/09 02:23:59;;;;;;;;;;;;;;;15.18;100.00;99947.34;1718709;83;20152;-70
2022/08/09 02:26:27;;;;;;;;;;;;;;;15.18;100.00;99958.16;1723246;81;21247;-70
2022/08/09 02:28:57;;;;;;;;;;;;;;;15.18;100.00;99950.59;1735724;81;20096;-71
2022/08/09 02:31:26;;;;;;;;;;;;;;;15.18;100.00;99953.30;1720198;82;20092;-71
2022/08/09 02:33:54;;;;;;;;;;;;;;;15.19;100.00;99958.45;1712465;81;20460;-70
2022/08/09 02:36:23;;;;;;;;;;;;;;;15.20;100.00;99952.48;1711772;83;20098;-70
2022/08/09 02:38:51;;;;;;;;;;;;;;;15.18;100.00;99947.34;1706062;81;21146;-72
2022/08/09 02:41:33;;;;;;;;;;;;;;;15.21;100.00;99945.47;1733411;82;20206;-72
2022/08/09 02:44:03;;;;;;;;;;;;;;;15.22;100.00;99940.86;1688800;83;20419;-72
2022/08/09 02:46:30;;;;;;;;;;;;;;;15.23;100.00;99950.03;1691727;83;20533;-72
2022/08/09 02:49:00;;;;;;;;;;;;;;;15.23;100.00;99955.44;1692232;83;20169;-72
2022/08/09 02:51:27;;;;;;;;;;;;;;;15.24;100.00;99953.56;1693477;84;21298;-73
2022/08/09 02:53:56;;;;;;;;;;;;;;;15.24;100.00;99953.56;1693874;83;20150;-73
2022/08/09 02:56:22;;;;;;;;;;;;;;;15.23;100.00;99950.58;1691549;83;20101;-73
2022/08/09 02:58:48;;;;;;;;;;;;;;;15.22;100.00;99945.72;1693076;84;20141;-73
2022/08/09 03:01:15;;;;;;;;;;;;;;;15.25;100.00;99955.72;1692097;83;20236;-73
2022/08/09 03:03:41;;;;;;;;;;;;;;;15.26;100.00;99960.03;1690614;83;21197;-73
2022/08/09 03:06:13;;;;;;;;;;;;;;;15.26;100.00;99956.78;1691896;83;20077;-74
2022/08/09 03:08:38;;;;;;;;;;;;;;;15.25;100.00;99963.29;1691974;83;20105;-72
2022/08/09 03:11:04;;;;;;;;;;;;;;;15.25;100.00;99971.40;1700509;83;20155;-72
2022/08/09 03:13:31;;;;;;;;;;;;;;;15.29;100.00;99970.33;1691393;83;20424;-72
2022/08/09 03:15:57;;;;;;;;;;;;;;;15.28;100.00;99968.69;1692515;82;22229;-72
2022/08/09 03:18:24;;;;;;;;;;;;;;;15.28;100.00;99964.08;1686257;83;20138;-72
2022/08/09 03:20:51;;;;;;;;;;;;;;;15.29;100.00;99967.62;1698332;82;20127;-70
2022/08/09 03:23:18;;;;;;;;;;;;;;;15.35;100.00;99969.21;1709157;82;20259;-70
2022/08/09 03:25:45;;;;;;;;;;;;;;;15.35;100.00;99975.97;1694252;82;20102;-74
2022/08/09 03:28:11;;;;;;;;;;;;;;;15.35;100.00;99973.27;1693606;83;21158;-73
2022/08/09 03:30:38;;;;;;;;;;;;;;;15.37;100.00;99969.75;1719605;82;20128;-72
2022/08/09 03:33:08;;;;;;;;;;;;;;;15.41;100.00;99972.98;1721567;82;20163;-72
2022/08/09 03:35:36;;;;;;;;;;;;;;;15.49;100.00;99975.66;1708444;83;20184;-74
2022/08/09 03:38:02;;;;;;;;;;;;;;;15.58;100.00;99984.84;1702794;83;20497;-75
2022/08/09 03:40:29;;;;;;;;;;;;;;;15.70;100.00;99979.11;1705798;82;23206;-73
2022/08/09 03:42:55;;;;;;;;;;;;;;;15.81;100.00;99984.77;1703962;83;20192;-72
2022/08/09 03:45:22;;;;;;;;;;;;;;;15.87;100.00;99981.47;1721236;82;20119;-73
2022/08/09 03:47:49;;;;;;;;;;;;;;;15.96;100.00;99993.34;1720959;82;20091;-72
2022/08/09 03:50:15;;;;;;;;;;;;;;;16.12;100.00;99985.97;1721480;82;20123;-74
2022/08/09 03:52:42;;;;;;;;;;;;;;;16.26;100.00;99986.94;1719775;82;21224;-73
2022/08/09 03:55:10;;;;;;;;;;;;;;;16.44;100.00;99990.09;1721797;82;20107;-76
2022/08/09 03:57:36;;;;;;;;;;;;;;;16.67;100.00;99990.72;1713500;82;21064;-74
2022/08/09 04:00:05;;;;;;;;;;;;;;;17.03;100.00;99991.80;1683323;84;20141;-73
2022/08/09 04:02:34;;;;;;;;;;;;;;;17.41;100.00;99991.94;1657619;85;20128;-75
2022/08/09 04:05:02;;;;;;;;;;;;;;;17.80;100.00;99989.61;1697518;83;22107;-73
2022/08/09 04:07:28;;;;;;;;;;;;;;;18.01;100.00;99991.52;1697770;82;20108;-75
2022/08/09 04:09:56;;;;;;;;;;;;;;;18.22;100.00;100001.54;1729887;82;32626;-74
2022/08/09 04:12:35;;;;;;;;;;;;;;;18.40;100.00;99999.94;1694365;84;20140;-75
2022/08/09 04:15:01;;;;;;;;;;;;;;;18.36;100.00;99996.19;1725822;83;20145;-76
2022/08/09 04:17:29;;;;;;;;;;;;;;;18.41;100.00;99987.39;1754362;81;21924;-74
2022/08/09 04:19:55;;;;;;;;;;;;;;;18.66;100.00;99991.38;1761503;81;20079;-75
2022/08/09 04:22:22;;;;;;;;;;;;;;;18.82;100.00;100002.30;1752258;81;20123;-76
2022/08/09 04:24:48;;;;;;;;;;;;;;;18.96;100.00;99999.59;1754815;81;20114;-73
2022/08/09 04:27:15;;;;;;;;;;;;;;;19.21;100.00;99998.35;1760412;81;20102;-75
2022/08/09 04:29:42;;;;;;;;;;;;;;;19.34;100.00;99990.74;1737026;81;21239;-73
2022/08/09 04:32:08;;;;;;;;;;;;;;;19.41;100.00;99991.72;1715587;82;20444;-74
2022/08/09 04:34:35;;;;;;;;;;;;;;;19.49;100.00;99995.88;1729751;83;20083;-75
2022/08/09 04:37:01;;;;;;;;;;;;;;;19.50;100.00;99996.72;1713166;82;20109;-75
2022/08/09 04:39:28;;;;;;;;;;;;;;;19.37;100.00;99996.14;1709724;82;20386;-72
2022/08/09 04:41:54;;;;;;;;;;;;;;;19.33;100.00;100001.39;1751167;81;21239;-76
2022/08/09 04:44:20;;;;;;;;;;;;;;;19.48;100.00;99998.92;1758374;81;20473;-75
2022/08/09 04:46:47;;;;;;;;;;;;;;;19.52;100.00;99997.75;1749608;81;20103;-73
2022/08/09 04:49:13;;;;;;;;;;;;;;;19.55;100.00;99997.97;1748502;81;20098;-76
2022/08/09 04:51:40;;;;;;;;;;;;;;;20.02;100.00;100001.94;1754205;81;20171;-71
2022/08/09 04:54:07;;;;;;;;;;;;;;;20.26;100.00;100007.11;1755678;81;21900;-74
2022/08/09 04:56:34;;;;;;;;;;;;;;;20.22;100.00;100012.95;1754484;81;20232;-72
2022/08/09 04:59:00;;;;;;;;;;;;;;;20.47;100.00;100008.82;1755655;81;20094;-71
2022/08/09 05:01:27;;;;;;;;;;;;;;;20.47;100.00;100006.89;1760325;81;20099;-72
2022/08/09 05:03:53;;;;;;;;;;;;;;;20.47;100.00;100010.19;1760908;81;20118;-73
2022/08/09 05:06:20;;;;;;;;;;;;;;;20.54;100.00;100009.20;1760886;81;21257;-73
2022/08/09 05:08:47;;;;;;;;;;;;;;;20.48;100.00;100011.25;1759888;81;20122;-74
2022/08/09 05:11:13;;;;;;;;;;;;;;;20.55;100.00;100006.73;1750795;81;20544;-73
2022/08/09 05:13:41;;;;;;;;;;;;;;;20.41;100.00;100009.50;1756828;81;21572;-72
2022/08/09 05:16:08;;;;;;;;;;;;;;;20.42;100.00;100014.39;1756736;81;20114;-70
2022/08/09 05:18:35;;;;;;;;;;;;;;;20.53;100.00;100015.22;1753589;81;21318;-72
2022/08/09 05:21:02;;;;;;;;;;;;;;;20.63;100.00;100022.91;1757211;81;20179;-72
2022/08/09 05:23:29;;;;;;;;;;;;;;;20.70;100.00;100023.30;1742137;81;20444;-70
2022/08/09 05:25:56;;;;;;;;;;;;;;;20.76;100.00;100027.52;1728726;81;20091;-72
2022/08/09 05:28:22;;;;;;;;;;;;;;;20.66;100.00;100023.13;1729066;81;20111;-72
2022/08/09 05:30:49;;;;;;;;;;;;;;;20.50;100.00;100024.55;1734313;81;21990;-69
2022/08/09 05:33:16;;;;;;;;;;;;;;;20.35;100.00;100021.62;1684441;83;20142;-73
2022/08/09 05:35:42;;;;;;;;;;;;;;;20.31;100.00;100028.27;1681405;83;20103;-71
2022/08/09 05:38:10;;;;;;;;;;;;;;;20.31;100.00;100028.27;1695770;82;20443;-70
2022/08/09 05:40:37;;;;;;;;;;;;;;;20.32;100.00;100026.34;1692745;82;20140;-72
2022/08/09 05:43:03;;;;;;;;;;;;;;;20.30;100.00;100030.72;1668238;83;21178;-71
2022/08/09 05:45:30;;;;;;;;;;;;;;;20.31;100.00;100035.64;1687642;83;20140;-74
2022/08/09 05:47:56;;;;;;;;;;;;;;;20.35;100.00;100037.98;1693809;83;20168;-72
2022/08/09 05:50:24;;;;;;;;;;;;;;;20.52;100.00;100040.86;1692334;82;20109;-71
2022/08/09 05:52:51;;;;;;;;;;;;;;;20.66;100.00;100046.30;1694592;82;20105;-71
2022/08/09 05:55:18;;;;;;;;;;;;;;;20.67;100.00;100041.08;1695499;82;21906;-72
2022/08/09 05:57:44;;;;;;;;;;;;;;;20.70;100.00;100049.20;1693161;82;20141;-70
2022/08/09 06:00:12;;;;;;;;;;;;;;;20.70;100.00;100050.03;1693212;82;20089;-70
2022/08/09 06:02:39;;;;;;;;;;;;;;;20.81;100.00;100057.41;1692686;82;20102;-72
2022/08/09 06:05:06;;;;;;;;;;;;;;;20.85;100.00;100056.21;1692784;82;20097;-71
2022/08/09 06:07:34;;;;;;;;;;;;;;;20.74;100.00;100052.37;1720244;83;21722;-73
2022/08/09 06:10:01;;;;;;;;;;;;;;;20.69;100.00;100051.13;1759529;81;20130;-73
2022/08/09 06:12:27;;;;;;;;;;;;;;;20.60;100.00;100058.43;1750462;81;20766;-70
2022/08/09 06:14:54;;;;;;;;;;;;;;;20.67;100.00;100056.64;1733417;81;20442;-73
2022/08/09 06:17:20;;;;;;;;;;;;;;;20.83;100.00;100058.47;1694071;83;20462;-73
2022/08/09 06:19:46;;;;;;;;;;;;;;;20.85;100.00;100058.94;1701790;83;21200;-74
2022/08/09 06:22:13;;;;;;;;;;;;;;;20.89;100.00;100068.13;1701775;83;20207;-72
2022/08/09 06:24:41;;;;;;;;;;;;;;;20.98;100.00;100063.55;1701407;83;20137;-75
2022/08/09 06:27:07;;;;;;;;;;;;;;;20.94;100.00;100063.91;1699481;83;20149;-72
2022/08/09 06:29:35;;;;;;;;;;;;;;;21.11;100.00;100060.48;1714607;82;20106;-70
2022/08/09 06:32:01;;;;;;;;;;;;;;;21.12;100.00;100052.56;1728602;81;21877;-72
2022/08/09 06:34:28;;;;;;;;;;;;;;;21.13;100.00;100053.59;1728988;81;20122;-73
2022/08/09 06:36:55;;;;;;;;;;;;;;;21.16;100.00;100054.33;1729102;81;20082;-70
2022/08/09 06:39:22;;;;;;;;;;;;;;;21.42;100.00;100064.63;1727728;82;20091;-71
2022/08/09 06:41:48;;;;;;;;;;;;;;;21.66;100.00;100067.56;1730019;81;20460;-71
2022/08/09 06:44:15;;;;;;;;;;;;;;;21.84;100.00;100061.83;1729409;81;21281;-71
2022/08/09 06:46:43;;;;;;;;;;;;;;;21.89;100.00;100070.44;1728200;82;20151;-75
2022/08/09 06:49:10;;;;;;;;;;;;;;;21.94;100.00;100070.30;1740642;81;20428;-74
2022/08/09 06:51:37;;;;;;;;;;;;;;;22.08;100.00;100070.18;1753443;81;20161;-71
2022/08/09 06:54:03;;;;;;;;;;;;;;;22.39;100.00;100072.84;1746028;81;20161;-73
2022/08/09 06:56:31;;;;;;;;;;;;;;;22.78;100.00;100073.80;1701136;81;21312;-74
2022/08/09 06:58:58;;;;;;;;;;;;;;;22.98;100.00;100076.48;1708922;81;20274;-73
2022/08/09 07:01:24;;;;;;;;;;;;;;;22.93;100.00;100073.89;1699605;83;20101;-73
2022/08/09 07:03:51;;;;;;;;;;;;;;;22.77;100.00;100070.03;1668389;85;20182;-73
2022/08/09 07:06:18;;;;;;;;;;;;;;;22.60;100.00;100066.16;1690860;83;20407;-76
2022/08/09 07:08:45;;;;;;;;;;;;;;;22.49;100.00;100078.56;1665872;85;21112;-75
2022/08/09 07:11:12;;;;;;;;;;;;;;;22.47;100.00;100080.24;1662003;84;20130;-74
2022/08/09 07:13:38;;;;;;;;;;;;;;;22.62;100.00;100089.11;1672765;84;20100;-73
2022/08/09 07:16:06;;;;;;;;;;;;;;;22.69;100.00;100086.70;1667015;85;20106;-75
2022/08/09 07:18:33;;;;;;;;;;;;;;;22.54;100.00;100093.45;1671621;84;20439;-74
2022/08/09 07:20:59;;;;;;;;;;;;;;;22.40;100.00;100090.85;1692892;83;22071;-73
2022/08/09 07:23:26;;;;;;;;;;;;;;;22.34;100.00;100088.58;1692933;83;20135;-74
2022/08/09 07:25:53;;;;;;;;;;;;;;;22.66;100.00;100094.16;1692939;83;20216;-73
2022/08/09 07:28:19;;;;;;;;;;;;;;;22.78;100.00;100088.05;1689736;83;20160;-71
2022/08/09 07:30:46;;;;;;;;;;;;;;;22.40;100.00;100096.32;1720618;82;20147;-74
2022/08/09 07:33:12;;;;;;;;;;;;;;;22.18;99.66;100099.95;1724297;81;21848;-73
2022/08/09 07:35:39;;;;;;;;;;;;;;;21.97;100.00;100092.88;1721132;82;20238;-72
2022/08/09 07:38:05;;;;;;;;;;;;;;;21.88;100.00;100096.17;1704665;82;20114;-72
2022/08/09 07:40:32;;;;;;;;;;;;;;;21.88;100.00;100089.88;1708969;83;20194;-71
2022/08/09 07:42:59;;;;;;;;;;;;;;;21.85;94.91;100095.41;1754538;81;20175;-71
2022/08/09 07:45:27;;;;;;;;;;;;;;;21.89;100.00;100091.50;1757612;81;21810;-72
2022/08/09 07:47:55;;;;;;;;;;;;;;;21.83;100.00;100090.85;1759434;81;20074;-69
2022/08/09 07:50:22;;;;;;;;;;;;;;;21.90;100.00;100090.38;1757729;81;20083;-71
2022/08/09 07:52:49;;;;;;;;;;;;;;;21.99;100.00;100087.11;1758988;81;20518;-72
2022/08/09 07:55:16;;;;;;;;;;;;;;;22.01;96.66;100093.88;1758983;81;20420;-73
2022/08/09 07:57:44;;;;;;;;;;;;;;;22.05;100.00;100088.59;1758834;81;21067;-72
2022/08/09 08:00:11;;;;;;;;;;;;;;;22.03;98.29;100086.16;1759285;81;20118;-75
2022/08/09 08:02:41;;;;;;;;;;;;;;;21.94;85.07;100099.55;1724294;83;20137;-72
2022/08/09 08:05:08;;;;;;;;;;;;;;;21.93;89.58;100093.86;1757362;81;20845;-73
2022/08/09 08:07:35;;;;;;;;;;;;;;;21.96;88.77;100102.22;1755052;81;20083;-71
2022/08/09 08:10:04;;;;;;;;;;;;;;;21.97;86.72;100099.72;1756232;81;21148;-72
2022/08/09 08:12:31;;;;;;;;;;;;;;;21.99;89.10;100098.84;1756414;81;20095;-71
2022/08/09 08:14:57;;;;;;;;;;;;;;;22.06;89.77;100098.39;1733643;81;20474;-74
2022/08/09 08:17:24;;;;;;;;;;;;;;;22.16;81.41;100100.02;1682679;84;20092;-72
2022/08/09 08:19:50;;;;;;;;;;;;;;;22.18;80.71;100101.31;1661249;84;20127;-73
2022/08/09 08:22:17;;;;;;;;;;;;;;;22.04;79.49;100103.36;1685051;83;21267;-73
2022/08/09 08:24:43;;;;;;;;;;;;;;;22.04;80.55;100110.20;1754894;81;20209;-72
2022/08/09 08:27:10;;;;;;;;;;;;;;;22.08;84.63;100113.91;1755510;81;20151;-72
2022/08/09 08:29:36;;;;;;;;;;;;;;;22.26;88.40;100114.22;1731321;81;20540;-71
2022/08/09 08:32:03;;;;;;;;;;;;;;;22.33;74.38;100107.49;1723219;82;20111;-72
2022/08/09 08:34:30;;;;;;;;;;;;;;;22.32;71.77;100108.06;1714166;82;21888;-72
2022/08/09 08:36:56;;;;;;;;;;;;;;;22.21;69.28;100103.44;1720956;82;20098;-68
2022/08/09 08:39:23;;;;;;;;;;;;;;;21.99;65.21;100098.84;1733131;77;20141;-74
2022/08/09 08:41:50;;;;;;;;;;;;;;;21.96;68.57;100093.22;1726045;82;20119;-74
2022/08/09 08:44:18;;;;;;;;;;;;;;;22.03;67.15;100090.27;1674406;82;20223;-73
2022/08/09 08:46:44;;;;;;;;;;;;;;;18.87;0.00;75803.50;1713297;82;21256;-76
2022/08/09 08:49:11;;;;;;;;;;;;;;;18.87;0.00;121243.64;1712643;82;20142;-74
2022/08/09 08:52:07;;;;;;;;;;;;;;;-146.14;100.00;121243.77;1713400;82;20445;-76
2022/08/09 08:54:36;;;;;;;;;;;;;;;-146.14;100.00;121243.23;1722538;82;20087;-74
2022/08/09 08:57:02;;;;;;;;;;;;;;;22.13;66.13;100096.00;1741926;81;20153;-73
2022/08/09 08:59:29;;;;;;;;;;;;;;;-136.98;0.00;75716.40;1760573;81;21134;-73
2022/08/09 09:01:55;;;;;;;;;;;;;;;-93.79;67.16;100090.08;1754531;81;20174;-74
2022/08/09 09:04:25;;;;;;;;;;;;;;;-136.98;0.00;75716.40;1748791;81;20167;-75
2022/08/09 09:06:51;;;;;;;;;;;;;;;22.83;67.16;100090.08;1724596;81;20146;-73
2022/08/09 09:09:18;;;;;;;;;;;;;;;22.88;63.66;100098.66;1701686;81;20120;-73
2022/08/09 09:11:44;;;;;;;;;;;;;;;23.00;65.40;100091.20;1701135;81;21259;-73
2022/08/09 09:14:20;;;;;;;;;;;;;;;23.07;66.34;100093.69;1699810;81;20331;-74
2022/08/09 09:16:47;;;;;;;;;;;;;;;22.96;64.59;100099.23;1692350;82;20213;-73
2022/08/09 09:19:14;;;;;;;;;;;;;;;22.95;70.14;100093.51;1701562;81;20395;-76
2022/08/09 09:22:04;;;;;;;;;;;;;;;22.95;64.96;100095.45;1701844;81;20101;-73
2022/08/09 09:24:36;;;;;;;;;;;;;;;22.95;66.14;100096.25;1703804;82;21246;-73
2022/08/09 09:27:03;;;;;;;;;;;;;;;22.78;66.92;100084.73;1700661;81;20077;-74
2022/08/09 09:29:33;;;;;;;;;;;;;;;22.69;68.81;100084.76;1717187;81;20087;-73
2022/08/09 09:32:00;;;;;;;;;;;;;;;22.68;70.27;100073.58;1728315;81;20098;-73
2022/08/09 09:34:26;;;;;;;;;;;;;;;22.63;69.34;100078.39;1730051;81;20135;-73
2022/08/09 09:36:53;;;;;;;;;;;;;;;22.77;74.11;100079.61;1723263;81;21881;-72
2022/08/09 09:39:21;;;;;;;;;;;;;;;22.73;73.42;100073.95;1724012;82;20201;-74
2022/08/09 09:41:48;;;;;;;;;;;;;;;22.52;65.00;100077.12;1700427;83;20169;-74
2022/08/09 09:44:25;;;;;;;;;;;;;;;22.47;71.86;100074.77;1699307;83;20470;-72
2022/08/09 09:46:58;;;;;;;;;;;;;;;22.55;75.72;100078.63;1734069;81;20438;-72
2022/08/09 09:49:24;;;;;;;;;;;;;;;22.67;70.14;100082.10;1719812;81;21240;-72
2022/08/09 09:52:03;;;;;;;;;;;;;;;22.68;67.20;100086.44;1720770;83;20451;-72
2022/08/09 09:54:38;;;;;;;;;;;;;;;22.74;63.73;100085.16;1714409;82;20153;-71
2022/08/09 09:57:20;;;;;;;;;;;;;;;22.75;62.88;100084.02;1721835;83;20085;-75
2022/08/09 09:59:49;;;;;;;;;;;;;;;22.84;63.30;100088.14;1719937;82;20179;-73
2022/08/09 10:02:16;;;;;;;;;;;;;;;22.85;69.08;100081.52;1722115;83;21887;-73
2022/08/09 10:04:42;;;;;;;;;;;;;;;22.94;68.69;100078.80;1684100;84;20116;-75
2022/08/09 10:07:25;;;;;;;;;;;;;;;23.04;65.56;100084.76;1655607;85;20119;-73
2022/08/09 10:09:54;;;;;;;;;;;;;;;23.14;64.09;100080.08;1683005;84;20235;-72
2022/08/09 10:12:25;;;;;;;;;;;;;;;23.30;61.01;100081.98;1672138;84;20518;-76
2022/08/09 10:15:04;;;;;;;;;;;;;;;23.32;56.64;100082.46;1652554;86;21261;-72
2022/08/09 10:17:33;;;;;;;;;;;;;;;23.30;58.80;100079.23;1678175;84;20187;-75
2022/08/09 10:20:01;;;;;;;;;;;;;;;23.33;56.60;100079.16;1653625;85;20425;-74
2022/08/09 10:22:32;;;;;;;;;;;;;;;23.43;55.64;100088.37;1658664;85;20114;-73
2022/08/09 10:24:59;;;;;;;;;;;;;;;23.68;57.38;100078.45;1654028;85;20113;-73
2022/08/09 10:27:28;;;;;;;;;;;;;;;23.99;54.82;100077.37;1678623;84;21233;-73
2022/08/09 10:29:54;;;;;;;;;;;;;;;23.90;50.09;100078.78;1687016;83;20200;-73
2022/08/09 10:32:20;;;;;;;;;;;;;;;23.96;52.08;100078.84;1675278;83;20143;-73
2022/08/09 10:34:47;;;;;;;;;;;;;;;23.95;51.66;100079.17;1691116;83;20117;-74
2022/08/09 10:37:13;;;;;;;;;;;;;;;23.92;49.87;100079.27;1692502;84;20101;-72
2022/08/09 10:39:40;;;;;;;;;;;;;;;24.05;50.67;100080.16;1691030;83;21256;-74
2022/08/09 10:42:06;;;;;;;;;;;;;;;24.17;51.35;100081.61;1691071;83;20149;-72
2022/08/09 10:44:33;;;;;;;;;;;;;;;24.05;49.41;100076.05;1672059;85;20090;-74
2022/08/09 10:47:30;;;;;;;;;;;;;;;23.76;49.05;100072.72;1695972;83;20148;-72
2022/08/09 10:50:15;;;;;;;;;;;;;;;23.66;49.99;100071.13;1692137;84;20126;-71
2022/08/09 10:53:01;;;;;;;;;;;;;;;23.89;51.47;100078.56;1692394;84;22783;-71
2022/08/09 10:55:28;;;;;;;;;;;;;;;23.84;49.85;100075.21;1694681;83;20160;-72
2022/08/09 10:57:55;;;;;;;;;;;;;;;23.79;52.27;100074.00;1692701;83;20176;-75
2022/08/09 11:00:32;;;;;;;;;;;;;;;23.73;50.30;100071.45;1692759;83;20172;-72
2022/08/09 11:02:58;;;;;;;;;;;;;;;23.41;51.51;100073.41;1689961;83;20113;-71
2022/08/09 11:05:26;;;;;;;;;;;;;;;23.22;51.27;100071.83;1691961;83;21499;-72
2022/08/09 11:07:54;;;;;;;;;;;;;;;23.08;52.74;100076.72;1692124;83;20093;-72
2022/08/09 11:10:43;;;;;;;;;;;;;;;23.04;54.43;100073.02;1694724;81;20189;-73
2022/08/09 11:13:14;;;;;;;;;;;;;;;23.01;54.08;100071.72;1687050;82;20085;-74
2022/08/09 11:15:40;;;;;;;;;;;;;;;23.03;54.86;100075.52;1712059;82;20125;-72
2022/08/09 11:18:11;;;;;;;;;;;;;;;22.96;53.00;100074.60;1713615;83;21257;-70
2022/08/09 11:20:46;;;;;;;;;;;;;;;22.96;56.28;100082.02;1714441;83;20474;-72
2022/08/09 11:23:12;;;;;;;;;;;;;;;22.98;54.93;100079.23;1715274;82;20186;-72
2022/08/09 11:25:41;;;;;;;;;;;;;;;22.95;55.84;100075.72;1710982;83;20122;-71
2022/08/09 11:28:32;;;;;;;;;;;;;;;22.88;55.77;100078.96;1715375;83;20152;-67
2022/08/09 11:31:00;;;;;;;;;;;;;;;22.92;55.70;100071.47;1694365;83;21254;-70
2022/08/09 11:33:39;;;;;;;;;;;;;;;22.89;56.95;100072.34;1693357;83;20112;-73
2022/08/09 11:36:06;;;;;;;;;;;;;;;22.87;57.52;100075.97;1689050;83;20427;-76
2022/08/09 11:38:34;;;;;;;;;;;;;;;22.79;58.65;100072.69;1692073;83;20097;-74
2022/08/09 11:41:13;;;;;;;;;;;;;;;22.85;60.64;100074.69;1692372;83;20129;-71
2022/08/09 11:43:47;;;;;;;;;;;;;;;22.77;60.84;100071.40;1689060;84;21269;-74
2022/08/09 11:46:14;;;;;;;;;;;;;;;22.82;61.18;100075.34;1692871;83;20684;-76
2022/08/09 11:48:51;;;;;;;;;;;;;;;22.85;62.75;100076.84;1712808;82;20495;-73
2022/08/09 11:51:20;;;;;;;;;;;;;;;22.93;61.08;100075.27;1723445;82;20139;-73
2022/08/09 11:53:48;;;;;;;;;;;;;;;22.94;61.17;100071.38;1713755;82;20133;-72
2022/08/09 11:56:21;;;;;;;;;;;;;;;23.01;60.81;100073.09;1693403;82;21268;-70
2022/08/09 11:58:52;;;;;;;;;;;;;;;23.09;60.52;100071.47;1722738;82;20099;-73
2022/08/09 12:01:33;;;;;;;;;;;;;;;23.11;57.88;100071.95;1721081;82;20167;-69
2022/08/09 12:04:07;;;;;;;;;;;;;;;23.08;57.80;100075.34;1708792;82;20103;-75
2022/08/09 12:06:34;;;;;;;;;;;;;;;23.09;59.11;100075.58;1720986;82;20099;-72
2022/08/09 12:09:04;;;;;;;;;;;;;;;23.17;58.87;100071.20;1720788;82;21134;-70
2022/08/09 12:11:31;;;;;;;;;;;;;;;23.00;56.93;100072.84;1720061;82;20127;-74
2022/08/09 12:14:05;;;;;;;;;;;;;;;22.95;57.86;100069.44;1722053;82;20272;-72
2022/08/09 12:16:37;;;;;;;;;;;;;;;22.86;56.76;100061.26;1722249;82;20186;-71
2022/08/09 12:19:04;;;;;;;;;;;;;;;22.78;56.55;100069.69;1722082;82;20159;-70
2022/08/09 12:21:37;;;;;;;;;;;;;;;22.73;57.06;100067.69;1721224;82;21898;-74
2022/08/09 12:24:06;;;;;;;;;;;;;;;22.65;60.34;100059.73;1721735;82;20087;-68
2022/08/09 12:26:38;;;;;;;;;;;;;;;22.58;59.20;100051.20;1721439;82;20123;-72
2022/08/09 12:29:04;;;;;;;;;;;;;;;22.43;59.80;100045.64;1717992;82;20114;-72
2022/08/09 12:31:31;;;;;;;;;;;;;;;22.30;59.89;100058.92;1738352;81;20099;-72
2022/08/09 12:33:58;;;;;;;;;;;;;;;22.23;59.01;100068.38;1748567;81;21902;-71
2022/08/09 12:36:24;;;;;;;;;;;;;;;22.14;59.38;100062.06;1730109;82;20083;-70
2022/08/09 12:38:52;;;;;;;;;;;;;;;22.04;61.15;100061.80;1711636;81;20458;-74
2022/08/09 12:41:28;;;;;;;;;;;;;;;21.91;62.51;100068.77;1695704;82;20121;-73
2022/08/09 12:43:55;;;;;;;;;;;;;;;21.76;61.89;100059.88;1692019;83;20113;-71
2022/08/09 12:46:23;;;;;;;;;;;;;;;21.62;63.05;100068.73;1695492;83;20439;-72
2022/08/09 12:48:52;;;;;;;;;;;;;;;21.50;62.25;100059.77;1693533;83;20125;-74
2022/08/09 12:51:20;;;;;;;;;;;;;;;21.37;65.08;100062.81;1693622;83;20125;-71
2022/08/09 12:53:48;;;;;;;;;;;;;;;21.28;68.27;100065.25;1682185;85;20104;-72
2022/08/09 12:56:17;;;;;;;;;;;;;;;21.19;74.38;100063.82;1647330;85;20147;-71
2022/08/09 12:59:03;;;;;;;;;;;;;;;21.10;79.18;100062.42;1675914;84;21194;-72
2022/08/09 13:01:32;;;;;;;;;;;;;;;21.09;84.76;100064.09;1670221;84;20238;-71